Giffnock, United Kingdom
Current Conditions -  °F | °C
As of 6:50 AM on Saturday 25 Oct 2014 (Local Time) from EGPF Reporting Station
Light Rain Light Rain  
Wind Chill: 50°   Ceiling: Unl
Heat Index: 50°   Visibility: 6mi
Dew Point: 48°   Wind: 21mph
Humidity: 94%   Direction: 210°SSW
Pressure: 29.65"   Gusts: NA
Location:  55.8°N, 4.29°W
Report Text: EGPF 250550Z AUTO 21018KT 9999 -RA SCT015/// SCT027/// //////TCU 10/09 Q1004 RERA
Loading
Personal Weather Stations






























Interactive Weather Map
Tropical Storm Tracking
New forecast layout! Learn more

10-Day Weather Forecast

Advertisements
Track Severe Weather on mobile